Time;durP1;ratioP1;P1;durP2;ratioP2;P2;SDS_P1;SDS_P2;PMS_P1;PMS_P2;Temp;Humidity;BMP_temperature;BMP_pressure;BME280_temperature;BME280_humidity;BME280_pressure;Samples;Min_cycle;Max_cycle;Signal;HPM_P1;HPM_P2
2022/05/06 00:02:44;;;;;;;11.47;8.77;;;;;;;10.96;87.33;101314.38;5221672;56;1137020;-74
2022/05/06 00:07:50;;;;;;;11.75;7.22;;;;;;;11.16;87.03;101322.66;5233381;56;1140986;-72
2022/05/06 00:12:56;;;;;;;11.57;8.00;;;;;;;10.99;85.88;101299.62;5137041;56;1141047;-70
2022/05/06 00:18:02;;;;;;;9.40;6.83;;;;;;;11.01;85.98;101311.77;5221613;56;1141222;-72
2022/05/06 00:23:08;;;;;;;12.30;6.73;;;;;;;10.93;85.77;101316.27;5221802;56;1138914;-70
2022/05/06 00:28:14;;;;;;;5.97;5.37;;;;;;;10.85;85.44;101321.68;5099825;57;1141176;-71
2022/05/06 00:33:22;;;;;;;10.23;6.70;;;;;;;10.78;85.18;101330.98;5135695;57;1139116;-73
2022/05/06 00:38:27;;;;;;;6.67;5.73;;;;;;;10.58;85.15;101325.66;5135734;57;1141107;-71
2022/05/06 00:43:34;;;;;;;6.90;6.23;;;;;;;10.61;86.50;101329.91;5135636;57;1139217;-72
2022/05/06 00:48:42;;;;;;;9.17;7.83;;;;;;;10.76;87.07;101319.66;5135575;57;1138991;-73
2022/05/06 00:53:48;;;;;;;7.27;6.40;;;;;;;10.83;86.41;101320.96;5135549;57;1139000;-71
2022/05/06 00:58:54;;;;;;;10.28;7.70;;;;;;;10.70;84.93;101322.21;5135355;57;1139049;-74
2022/05/06 01:04:00;;;;;;;6.20;5.30;;;;;;;10.54;84.25;101334.27;5219901;56;1141287;-72
2022/05/06 01:09:07;;;;;;;7.80;6.53;;;;;;;10.24;83.86;101330.93;5221735;56;1139043;-72
2022/05/06 01:14:14;;;;;;;10.20;6.60;;;;;;;9.97;84.42;101337.92;5157803;56;1138968;-69
2022/05/06 01:19:21;;;;;;;7.63;6.73;;;;;;;9.76;85.01;101327.75;5219467;56;1139001;-74
2022/05/06 01:24:27;;;;;;;10.57;7.30;;;;;;;9.73;85.33;101333.69;5221994;56;1137139;-71
2022/05/06 01:29:34;;;;;;;11.20;8.30;;;;;;;9.92;86.99;101325.02;5161973;56;1138905;-70
2022/05/06 01:34:41;;;;;;;14.40;10.83;;;;;;;10.15;87.35;101332.81;5143762;56;1138972;-70
2022/05/06 01:39:53;;;;;;;15.00;9.73;;;;;;;10.31;87.06;101335.37;5128434;57;1143143;-72
2022/05/06 01:45:01;;;;;;;14.53;10.73;;;;;;;10.38;86.33;101349.92;5128346;57;1141030;-71
2022/05/06 01:50:09;;;;;;;12.17;8.43;;;;;;;10.40;86.10;101351.48;5130003;57;1143303;-72
2022/05/06 01:55:15;;;;;;;12.43;9.17;;;;;;;10.46;86.09;101359.52;5132618;57;1141122;-70
2022/05/06 02:00:25;;;;;;;13.40;9.57;;;;;;;10.52;85.78;101365.28;5124817;57;1141059;-74
2022/05/06 02:05:32;;;;;;;8.53;7.33;;;;;;;10.51;84.75;101369.34;5132850;57;1141051;-73
2022/05/06 02:10:39;;;;;;;10.23;7.50;;;;;;;10.17;83.18;101376.72;5145937;57;1139040;-71
2022/05/06 02:15:47;;;;;;;10.17;8.20;;;;;;;9.84;82.85;101379.63;5175227;56;1141198;-73
2022/05/06 02:21:01;;;;;;;9.73;7.37;;;;;;;9.58;83.44;101376.88;5178606;56;1139024;-70
2022/05/06 02:26:23;;;;;;;11.08;6.47;;;;;;;9.50;83.77;101383.91;5210968;56;1136928;-73
2022/05/06 02:36:54;;;;;;;13.47;5.53;;;;;;;8.83;83.91;101385.20;5132473;56;1137067;-70
2022/05/06 02:42:01;;;;;;;6.63;6.03;;;;;;;8.57;84.83;101381.36;5090810;57;1136943;-72
2022/05/06 02:47:08;;;;;;;6.58;5.58;;;;;;;8.49;85.63;101386.69;5118907;57;1134946;-73
2022/05/06 02:52:14;;;;;;;10.55;6.35;;;;;;;8.47;86.17;101380.17;5153839;57;1134869;-71
2022/05/06 02:57:20;;;;;;;6.77;5.77;;;;;;;8.48;86.45;101383.20;5160435;56;1136961;-71
2022/05/06 03:02:26;;;;;;;6.73;5.47;;;;;;;8.68;87.03;101386.06;5160286;56;1134928;-69
2022/05/06 03:07:34;;;;;;;6.37;5.37;;;;;;;8.76;85.93;101395.70;5160341;56;1135103;-71
2022/05/06 03:12:43;;;;;;;6.83;5.70;;;;;;;8.75;86.35;101388.72;5160649;56;1134845;-73
2022/05/06 03:17:51;;;;;;;8.83;5.70;;;;;;;8.77;85.99;101397.40;5200503;56;1134846;-70
2022/05/06 03:22:57;;;;;;;6.63;6.03;;;;;;;8.82;87.00;101394.05;5218202;56;1134863;-73
2022/05/06 03:28:07;;;;;;;9.63;6.77;;;;;;;8.88;86.29;101393.68;5218261;56;1134836;-74
2022/05/06 03:33:12;;;;;;;18.53;5.30;;;;;;;8.68;85.19;101409.80;5218705;56;1135021;-73
2022/05/06 03:38:18;;;;;;;5.67;5.17;;;;;;;8.44;84.94;101414.14;5186953;56;1136965;-73
2022/05/06 03:43:27;;;;;;;8.13;4.80;;;;;;;8.36;85.28;101414.19;5219142;56;1132992;-73
2022/05/06 03:48:36;;;;;;;7.67;5.30;;;;;;;8.22;85.31;101416.69;5230566;56;21184;-70
2022/05/06 03:53:42;;;;;;;7.23;6.03;;;;;;;8.04;85.74;101427.27;5219641;55;1132562;-74
2022/05/06 03:58:48;;;;;;;6.87;5.50;;;;;;;7.84;86.48;101433.17;5219593;55;1136850;-76
2022/05/06 04:03:54;;;;;;;8.77;6.53;;;;;;;7.70;87.14;101438.69;5219557;55;1137172;-70
2022/05/06 04:09:02;;;;;;;9.30;7.00;;;;;;;7.60;88.02;101444.04;5219259;56;1136906;-74
2022/05/06 04:14:10;;;;;;;9.47;6.30;;;;;;;7.57;89.19;101448.60;5219287;56;1137202;-69
2022/05/06 04:19:18;;;;;;;10.70;7.03;;;;;;;7.61;89.55;101446.21;5007105;57;1136856;-71
2022/05/06 04:24:24;;;;;;;9.68;6.70;;;;;;;7.68;89.88;101449.75;5041824;57;1139324;-72
2022/05/06 04:29:29;;;;;;;10.23;8.30;;;;;;;7.83;90.47;101461.75;5006955;58;1137186;-72
2022/05/06 04:34:36;;;;;;;12.45;7.17;;;;;;;7.73;90.95;101446.90;4995777;58;1139364;-72
2022/05/06 04:39:42;;;;;;;17.07;7.80;;;;;;;7.81;91.52;101463.61;5021814;58;1139109;-72
2022/05/06 04:44:49;;;;;;;12.00;8.70;;;;;;;7.85;92.26;101463.38;5153143;56;1139331;-73
2022/05/06 04:49:56;;;;;;;17.17;8.27;;;;;;;7.88;92.76;101465.02;5220620;56;1138986;-74
2022/05/06 04:55:03;;;;;;;16.77;8.10;;;;;;;7.98;93.54;101460.96;5225353;56;1139226;-73
2022/05/06 05:00:09;;;;;;;18.13;8.70;;;;;;;8.13;94.25;101463.66;5200602;56;1138995;-73
2022/05/06 05:05:18;;;;;;;14.87;8.60;;;;;;;8.33;94.90;101466.59;5179071;56;1139058;-72
2022/05/06 05:10:25;;;;;;;16.50;10.70;;;;;;;8.49;95.14;101465.31;5218648;56;1139335;-76
2022/05/06 05:15:32;;;;;;;22.87;10.47;;;;;;;8.63;96.08;101466.73;5218623;56;1141305;-74
2022/05/06 05:20:38;;;;;;;13.90;8.43;;;;;;;8.79;95.80;101475.52;5218650;56;1141051;-75
2022/05/06 05:25:45;;;;;;;15.83;10.03;;;;;;;9.01;96.19;101474.34;5218723;56;1138986;-71
2022/05/06 05:30:52;;;;;;;18.65;9.80;;;;;;;9.16;96.05;101476.97;5167324;56;1141045;-75
2022/05/06 05:35:58;;;;;;;26.60;10.87;;;;;;;9.31;96.22;101484.48;5165424;56;1138990;-73
2022/05/06 05:41:04;;;;;;;20.67;10.07;;;;;;;9.50;96.55;101486.89;5170831;56;1141465;-72
2022/05/06 05:51:36;;;;;;;16.30;8.50;;;;;;;9.77;95.96;101485.78;5164964;56;1141574;-74
2022/05/06 05:56:42;;;;;;;9.67;6.57;;;;;;;9.92;95.94;101480.92;5165316;56;1138906;-74
2022/05/06 06:01:49;;;;;;;12.00;5.57;;;;;;;10.08;95.38;101475.06;5165340;56;1137128;-73
2022/05/06 06:06:56;;;;;;;17.23;8.00;;;;;;;10.28;95.27;101480.50;5165160;56;1141080;-71
2022/05/06 06:12:02;;;;;;;12.93;5.57;;;;;;;10.46;94.44;101477.20;5165291;56;1141401;-73
2022/05/06 06:17:10;;;;;;;15.47;5.27;;;;;;;10.66;93.45;101475.50;5197873;56;1141016;-72
2022/05/06 06:22:16;;;;;;;15.20;5.47;;;;;;;10.82;91.58;101480.21;5218415;56;1141374;-72
2022/05/06 06:27:31;;;;;;;14.67;5.53;;;;;;;10.98;91.11;101480.56;5201975;56;1138695;-74
2022/05/06 06:32:39;;;;;;;11.50;5.30;;;;;;;11.24;89.90;101482.37;5172025;56;1138956;-71
2022/05/06 06:37:46;;;;;;;9.97;4.93;;;;;;;11.24;89.90;101482.37;5198099;56;1139275;-72
2022/05/06 06:42:54;;;;;;;18.93;5.97;;;;;;;11.41;89.23;101486.56;5157616;56;1136954;-75
2022/05/06 06:48:02;;;;;;;9.27;4.70;;;;;;;11.50;88.67;101490.77;5135188;57;1139260;-73
2022/05/06 06:53:10;;;;;;;13.87;4.63;;;;;;;11.76;89.12;101487.77;5114431;57;1136906;-70
2022/05/06 06:58:16;;;;;;;15.47;4.63;;;;;;;12.08;88.21;101489.53;5135880;57;1138986;-73
2022/05/06 07:03:22;;;;;;;7.70;4.37;;;;;;;12.18;86.26;101489.77;5135863;56;1138985;-70
2022/05/06 07:13:55;;;;;;;10.77;4.20;;;;;;;12.48;83.07;101487.64;5008024;57;1137044;-76
2022/05/06 07:19:00;;;;;;;8.90;4.17;;;;;;;12.63;85.53;101498.98;5073500;58;1139019;-74
2022/05/06 07:24:08;;;;;;;14.80;4.53;;;;;;;12.78;82.91;101485.10;5075016;58;1137305;-76
2022/05/06 07:29:14;;;;;;;10.03;4.13;;;;;;;12.84;81.10;101492.61;5070594;58;1137303;-73
2022/05/06 07:34:20;;;;;;;10.87;4.63;;;;;;;12.99;82.92;101496.81;5163087;56;1137057;-75
2022/05/06 07:39:26;;;;;;;5.10;3.30;;;;;;;13.34;82.37;101505.77;5136460;57;1141107;-74
2022/05/06 07:44:32;;;;;;;9.60;4.00;;;;;;;13.59;80.75;101498.66;5191162;57;1138883;-76
2022/05/06 07:49:38;;;;;;;9.17;4.80;;;;;;;13.79;80.58;101506.45;5190670;57;1139251;-75
2022/05/06 07:54:44;;;;;;;7.70;3.73;;;;;;;13.88;76.98;101508.43;5191035;57;1139127;-75
2022/05/06 07:59:50;;;;;;;9.63;3.97;;;;;;;14.03;80.12;101513.91;5242946;56;1138945;-74
2022/05/06 08:04:56;;;;;;;13.70;4.00;;;;;;;14.21;79.17;101496.52;5221575;56;1138979;-75
2022/05/06 08:10:06;;;;;;;5.13;3.10;;;;;;;14.30;74.00;101499.81;5221506;56;1141081;-76
2022/05/06 08:15:10;;;;;;;9.90;3.07;;;;;;;14.38;74.88;101502.70;5221380;56;1139147;-75
2022/05/06 08:20:16;;;;;;;9.37;3.80;;;;;;;14.53;74.89;101510.01;5230316;55;1139213;-74
2022/05/06 08:25:22;;;;;;;10.27;4.20;;;;;;;14.55;71.46;101501.42;5278281;56;1139004;-77
2022/05/06 08:30:28;;;;;;;10.87;4.17;;;;;;;14.82;75.33;101509.03;5253603;56;1141353;-75
2022/05/06 08:35:34;;;;;;;8.50;4.17;;;;;;;15.08;73.62;101507.81;5172715;56;1141086;-74
2022/05/06 08:40:40;;;;;;;11.23;3.70;;;;;;;15.05;71.14;101508.06;5160060;56;1139053;-75
2022/05/06 08:51:10;;;;;;;7.33;4.27;;;;;;;15.11;70.25;101518.23;5160138;56;1139049;-74
2022/05/06 08:56:16;;;;;;;8.23;3.77;;;;;;;14.96;69.21;101522.13;5160152;56;1139286;-74
2022/05/06 09:01:26;;;;;;;11.63;4.23;;;;;;;15.02;71.23;101514.11;5235536;56;1139072;-75
2022/05/06 09:06:32;;;;;;;6.57;3.43;;;;;;;15.32;71.20;101516.95;5250803;55;1141443;-75
2022/05/06 09:17:05;;;;;;;8.93;3.83;;;;;;;15.40;66.42;101519.02;5269616;55;1138945;-75
2022/05/06 09:22:16;;;;;;;4.03;3.30;;;;;;;15.63;66.55;101510.47;5306528;55;1139192;-75
2022/05/06 09:27:21;;;;;;;6.07;3.80;;;;;;;15.73;65.14;101509.59;5284118;55;1138936;-76
2022/05/06 09:32:32;;;;;;;6.60;3.30;;;;;;;15.87;66.34;101516.92;5218867;56;1139419;-76
2022/05/06 09:37:46;;;;;;;11.90;4.23;;;;;;;16.10;66.28;101525.16;5221052;56;1139066;-76
2022/05/06 09:43:00;;;;;;;6.53;3.50;;;;;;;16.08;62.42;101515.94;5221884;56;1141042;-76
2022/05/06 09:48:11;;;;;;;6.13;2.70;;;;;;;16.03;62.45;101515.50;5222352;56;1138980;-75
2022/05/06 09:53:19;;;;;;;11.77;4.00;;;;;;;16.21;62.03;101507.73;5222407;56;1136411;-74
2022/05/06 09:58:25;;;;;;;8.50;4.17;;;;;;;16.38;64.26;101508.47;5253820;55;1138977;-75
2022/05/06 10:03:31;;;;;;;6.40;3.80;;;;;;;16.66;63.28;101510.95;5298520;55;1136861;-75
2022/05/06 10:08:41;;;;;;;10.27;4.03;;;;;;;16.88;62.65;101506.75;5221977;56;1137174;-73
2022/05/06 10:13:49;;;;;;;8.47;4.27;;;;;;;16.93;58.88;101499.67;5218486;56;1138980;-75
2022/05/06 10:18:55;;;;;;;10.30;4.13;;;;;;;17.01;63.56;101501.16;5235680;55;1136951;-74
2022/05/06 10:24:15;;;;;;;9.10;4.20;;;;;;;17.06;60.38;101492.25;5217278;56;1139099;-76
2022/05/06 10:35:05;;;;;;;9.13;3.73;;;;;;;17.19;64.13;101493.33;5222018;56;1134901;-75
2022/05/06 10:40:32;;;;;;;11.23;3.10;;;;;;;17.40;62.13;101485.20;5220709;55;1139089;-76
2022/05/06 10:45:42;;;;;;;6.13;2.83;;;;;;;17.23;58.95;101480.05;5242615;55;1141332;-77
2022/05/06 10:50:46;;;;;;;9.93;3.43;;;;;;;17.26;59.47;101474.43;5231864;55;1138970;-74
2022/05/06 10:55:51;;;;;;;6.63;3.13;;;;;;;17.38;60.05;101476.47;5242544;55;1139072;-73
2022/05/06 11:01:01;;;;;;;14.40;3.73;;;;;;;17.65;62.21;101473.97;5222221;55;1139021;-75
2022/05/06 11:06:08;;;;;;;4.80;3.20;;;;;;;17.90;58.45;101476.55;5219278;55;1141003;-75
2022/05/06 11:11:19;;;;;;;20.30;3.47;;;;;;;17.81;59.20;101468.05;5198723;56;1139113;-76
2022/05/06 11:16:25;;;;;;;8.63;3.47;;;;;;;17.65;58.10;101466.44;5170819;56;1140997;-74
2022/05/06 11:21:31;;;;;;;10.17;3.70;;;;;;;17.57;57.67;101465.27;5219058;56;1139218;-73
2022/05/06 11:26:37;;;;;;;7.63;2.73;;;;;;;17.43;57.87;101457.67;5209745;56;1141068;-73
2022/05/06 11:31:46;;;;;;;3.87;2.33;;;;;;;17.44;60.15;101454.01;5133676;57;1139211;-74
2022/05/06 11:36:53;;;;;;;4.97;1.80;;;;;;;17.86;62.47;101458.61;5133351;57;1138917;-74
2022/05/06 11:42:18;;;;;;;3.67;2.07;;;;;;;17.95;57.95;101438.66;5133609;57;1139001;-73
2022/05/06 11:47:29;;;;;;;4.13;2.30;;;;;;;17.95;57.95;101438.66;5133489;57;1138924;-75
2022/05/06 11:52:37;;;;;;;4.57;2.10;;;;;;;17.98;57.99;101443.72;5133425;57;1139101;-73
2022/05/06 11:57:43;;;;;;;6.93;2.40;;;;;;;18.01;59.49;101442.95;5152751;56;1138999;-72
2022/05/06 12:02:51;;;;;;;4.67;2.20;;;;;;;17.99;58.84;101435.55;5219197;56;1138993;-72
2022/05/06 12:07:56;;;;;;;6.57;2.83;;;;;;;17.93;56.73;101438.80;5219441;56;1139044;-72
2022/05/06 12:13:10;;;;;;;6.57;2.60;;;;;;;17.89;57.18;101436.89;5219363;56;1139084;-73
2022/05/06 12:18:23;;;;;;;3.37;1.77;;;;;;;17.95;58.69;101435.97;5187109;56;1139100;-73
2022/05/06 12:23:30;;;;;;;3.95;1.90;;;;;;;18.09;59.12;101435.02;5156185;56;1138998;-75
2022/05/06 12:28:41;;;;;;;5.77;1.57;;;;;;;18.07;57.35;101428.96;5188515;56;1139037;-73
2022/05/06 12:33:46;;;;;;;2.40;1.70;;;;;;;18.08;58.66;101427.13;5217585;56;1136957;-73
2022/05/06 12:38:52;;;;;;;3.43;2.33;;;;;;;18.24;59.78;101422.85;5219912;56;1136965;-73
2022/05/06 12:44:00;;;;;;;5.63;1.97;;;;;;;18.59;60.15;101414.14;5221343;56;1137135;-74
2022/05/06 12:54:46;;;;;;;4.75;2.00;;;;;;;18.80;59.02;101415.20;5221647;56;1136979;-73
2022/05/06 12:59:52;;;;;;;5.10;2.06;;;;;;;18.67;57.89;101411.19;5221556;56;1137001;-74
2022/05/06 13:04:58;;;;;;;9.58;1.80;;;;;;;18.54;55.01;101410.17;5274306;55;1136879;-73
2022/05/06 13:10:04;;;;;;;4.30;1.90;;;;;;;18.37;55.88;101409.62;5279509;56;1136948;-75
2022/05/06 13:15:11;;;;;;;63.48;8.23;;;;;;;18.41;57.39;101403.83;5213682;55;1136989;-73
2022/05/06 13:20:16;;;;;;;3.90;1.87;;;;;;;18.43;56.75;101400.51;5224785;56;1139307;-73
2022/05/06 13:25:22;;;;;;;1.98;1.60;;;;;;;18.53;56.21;101395.09;5308550;55;1135123;-76
2022/05/06 13:30:27;;;;;;;3.15;1.70;;;;;;;18.80;55.65;101383.53;5275580;55;1134914;-73
2022/05/06 13:35:33;;;;;;;3.90;1.52;;;;;;;19.25;54.35;101384.31;5290016;55;1134970;-76
2022/05/06 13:40:38;;;;;;;10.00;2.00;;;;;;;19.52;51.13;101372.69;5222622;56;1138897;-74
2022/05/06 13:45:44;;;;;;;4.67;1.70;;;;;;;19.75;53.43;101375.69;5222318;56;1141018;-73
2022/05/06 13:50:50;;;;;;;4.43;1.73;;;;;;;19.96;52.88;101378.85;5222218;56;1138990;-75
2022/05/06 14:01:19;;;;;;;2.85;1.90;;;;;;;19.66;53.74;101386.03;5243971;55;1138969;-74
2022/05/06 14:06:25;;;;;;;11.28;2.02;;;;;;;19.48;53.83;101392.73;5269362;55;1138487;-75
2022/05/06 14:11:31;;;;;;;2.30;1.80;;;;;;;19.31;53.22;101382.87;5293250;55;1141045;-74
2022/05/06 14:16:37;;;;;;;9.25;1.47;;;;;;;19.30;54.97;101379.84;5250812;55;1138940;-74
2022/05/06 14:21:43;;;;;;;2.35;1.70;;;;;;;19.46;54.98;101373.27;5222225;56;1138931;-72
2022/05/06 14:26:48;;;;;;;1.62;1.20;;;;;;;19.44;52.88;101380.62;5217913;56;1139012;-74
2022/05/06 14:31:55;;;;;;;3.77;1.30;;;;;;;19.30;50.49;101383.86;5202083;56;1139015;-75
2022/05/06 14:37:01;;;;;;;3.35;1.40;;;;;;;19.10;51.29;101379.64;5213235;56;1138970;-72
2022/05/06 14:42:07;;;;;;;3.67;1.80;;;;;;;19.07;53.08;101379.48;5218555;56;1139027;-75
2022/05/06 14:47:13;;;;;;;3.08;1.42;;;;;;;19.14;53.99;101385.05;5210321;56;1139102;-75
2022/05/06 14:52:23;;;;;;;4.33;1.95;;;;;;;19.00;52.23;101382.41;5228105;56;1138956;-74
2022/05/06 14:57:26;;;;;;;8.95;2.00;;;;;;;18.96;53.85;101379.68;5219825;56;1138996;-76
2022/05/06 15:02:33;;;;;;;2.40;1.70;;;;;;;18.95;53.59;101383.36;5134174;57;1139119;-73
2022/05/06 15:07:39;;;;;;;8.10;1.98;;;;;;;18.94;54.28;101373.66;5214471;55;1138329;-74
2022/05/06 15:12:46;;;;;;;10.05;2.30;;;;;;;18.93;53.50;101370.62;5219746;56;1138964;-75
2022/05/06 15:17:52;;;;;;;4.30;1.50;;;;;;;18.89;53.43;101375.44;5205037;56;1141308;-76
2022/05/06 15:22:58;;;;;;;5.13;1.57;;;;;;;18.95;54.29;101372.63;5184806;55;1139261;-75
2022/05/06 15:28:04;;;;;;;2.10;1.50;;;;;;;19.02;52.81;101371.04;4745889;55;1138855;-74
2022/05/06 15:33:10;;;;;;;1.62;1.42;;;;;;;18.95;51.16;101368.61;5153142;55;1138807;-73
2022/05/06 15:38:18;;;;;;;3.75;2.58;;;;;;;18.81;51.54;101365.12;5143034;56;1138902;-76
2022/05/06 15:43:23;;;;;;;1.77;1.52;;;;;;;18.66;52.17;101356.75;4987978;55;1139019;-75
2022/05/06 15:48:28;;;;;;;5.30;1.80;;;;;;;18.56;53.44;101365.33;4677869;56;1138939;-74
2022/05/06 15:53:36;;;;;;;3.37;1.67;;;;;;;18.56;54.17;101359.47;4663214;55;1138936;-75
2022/05/06 15:58:45;;;;;;;2.55;1.98;;;;;;;18.56;54.42;101359.47;4499032;57;1139006;-78
2022/05/06 16:03:51;;;;;;;1.90;1.77;;;;;;;18.58;55.05;101352.63;4552123;57;1139082;-75
2022/05/06 16:08:57;;;;;;;2.10;1.87;;;;;;;18.56;54.60;101347.42;4564751;57;1138980;-76
2022/05/06 16:14:04;;;;;;;2.52;1.47;;;;;;;18.56;55.01;101351.44;4641486;56;1139004;-78
2022/05/06 16:19:10;;;;;;;2.60;1.65;;;;;;;18.61;54.39;101341.65;4656874;56;1143645;-76
2022/05/06 16:24:15;;;;;;;1.55;1.45;;;;;;;18.69;54.31;101343.06;4671179;55;1138943;-75
2022/05/06 16:29:22;;;;;;;6.20;2.65;;;;;;;18.78;54.23;101342.66;4621359;56;1145888;-74
2022/05/06 16:39:53;;;;;;;4.25;2.25;;;;;;;18.52;52.88;101336.64;4619287;56;1139005;-76
2022/05/06 16:44:59;;;;;;;1.65;1.55;;;;;;;18.51;52.44;101344.33;4627534;56;1146935;-76
2022/05/06 16:50:06;;;;;;;4.08;1.92;;;;;;;18.47;52.45;101338.95;4536612;56;1147348;-74
2022/05/06 16:55:13;;;;;;;4.98;1.70;;;;;;;18.53;51.64;101335.66;4580526;56;1138993;-75
2022/05/06 17:00:22;;;;;;;2.60;1.30;;;;;;;18.64;51.56;101331.94;4610292;56;1138859;-76
2022/05/06 17:05:29;;;;;;;3.30;1.67;;;;;;;18.65;50.38;101333.62;4597053;57;1253359;-76
2022/05/06 17:10:34;;;;;;;3.12;1.42;;;;;;;18.59;51.32;101324.38;4605117;57;1138937;-73
2022/05/06 17:15:40;;;;;;;3.36;1.26;;;;;;;18.71;51.18;101334.87;4605269;57;1138851;-74
2022/05/06 17:20:46;;;;;;;3.20;1.80;;;;;;;18.69;50.28;101329.66;4579887;57;1249435;-74
2022/05/06 17:25:51;;;;;;;7.37;3.83;;;;;;;18.62;51.06;101328.59;4587725;56;1145468;-75
2022/05/06 17:30:58;;;;;;;4.22;3.40;;;;;;;18.45;51.26;101335.58;4550570;56;1139207;-75
2022/05/06 17:36:04;;;;;;;4.60;4.10;;;;;;;18.37;51.89;101333.28;4609817;56;1138916;-75
2022/05/06 17:41:10;;;;;;;13.62;8.75;;;;;;;18.30;52.48;101334.39;4598838;56;1138976;-78
2022/05/06 17:46:17;;;;;;;11.43;6.03;;;;;;;18.27;52.94;101338.70;4572468;56;1141025;-77
2022/05/06 17:51:24;;;;;;;13.45;9.68;;;;;;;18.24;52.90;101336.31;4450975;58;1208796;-77
2022/05/06 17:56:30;;;;;;;16.35;11.33;;;;;;;18.20;53.44;101338.94;4449903;58;1147746;-75
2022/05/06 18:01:37;;;;;;;15.26;10.08;;;;;;;18.14;53.80;101330.17;4565853;57;1143148;-75
2022/05/06 18:06:43;;;;;;;16.75;9.70;;;;;;;18.16;53.98;101342.92;4549396;57;1143147;-75
2022/05/06 18:11:49;;;;;;;19.53;10.03;;;;;;;18.06;54.52;101340.77;4537810;58;1235701;-76
2022/05/06 18:16:55;;;;;;;13.60;9.18;;;;;;;17.98;54.79;101345.53;4500351;57;1143045;-74
2022/05/06 18:22:01;;;;;;;6.80;5.45;;;;;;;17.96;55.56;101351.52;4525914;58;1150725;-76
2022/05/06 18:27:07;;;;;;;11.78;5.02;;;;;;;17.94;56.01;101354.83;4522600;58;1138953;-76
2022/05/06 18:37:37;;;;;;;10.20;7.60;;;;;;;17.61;56.45;101370.87;4608185;56;1141074;-73
2022/05/06 18:42:43;;;;;;;18.24;9.68;;;;;;;17.51;57.02;101374.06;4628641;56;1258152;-75
2022/05/06 18:47:48;;;;;;;29.45;12.40;;;;;;;17.46;57.79;101375.82;4638391;56;1141032;-75
2022/05/06 18:52:54;;;;;;;95.17;16.77;;;;;;;17.42;58.92;101385.59;4663907;56;1143138;-76
2022/05/06 18:58:00;;;;;;;61.63;12.82;;;;;;;17.33;59.40;101387.30;4683767;56;1177681;-74
2022/05/06 19:03:06;;;;;;;62.27;12.25;;;;;;;17.25;59.89;101387.18;4629062;56;1151740;-73
2022/05/06 19:08:12;;;;;;;44.50;12.23;;;;;;;17.09;60.20;101387.74;4639671;56;1145297;-73
2022/05/06 19:13:19;;;;;;;36.28;12.15;;;;;;;16.98;60.64;101398.54;4616777;56;1143065;-76
2022/05/06 19:18:24;;;;;;;43.17;12.53;;;;;;;16.83;60.75;101398.09;4573105;56;1143100;-76
2022/05/06 19:28:49;;;;;;;40.28;16.88;;;;;;;16.44;61.23;101404.30;4511729;56;1143100;-74
2022/05/06 19:33:55;;;;;;;26.23;12.95;;;;;;;16.11;61.81;101418.27;4598780;56;1152586;-75
2022/05/06 19:39:01;;;;;;;51.40;19.34;;;;;;;15.92;62.85;101414.64;4636647;56;1181096;-75
2022/05/06 19:44:06;;;;;;;65.03;26.50;;;;;;;15.82;63.50;101410.11;4621374;56;1143141;-77
2022/05/06 19:49:14;;;;;;;76.87;29.42;;;;;;;15.80;64.35;101404.55;4649151;56;1143120;-74
2022/05/06 19:54:20;;;;;;;50.70;21.37;;;;;;;15.85;65.00;101413.50;4626437;56;1143110;-75
2022/05/06 19:59:27;;;;;;;40.60;19.57;;;;;;;15.69;64.84;101414.80;4617112;56;1143414;-75
2022/05/06 20:04:33;;;;;;;48.00;25.90;;;;;;;15.35;65.41;101416.75;4647387;56;1147647;-75
2022/05/06 20:09:39;;;;;;;47.63;24.63;;;;;;;15.00;66.09;101418.81;4637050;56;1143180;-76
2022/05/06 20:14:45;;;;;;;41.18;24.35;;;;;;;14.90;67.07;101418.73;4616003;56;1143475;-72
2022/05/06 20:19:51;;;;;;;55.32;33.18;;;;;;;14.87;67.57;101415.45;4594971;57;1187222;-70
2022/05/06 20:24:56;;;;;;;31.35;15.88;;;;;;;14.86;67.83;101419.94;4595309;57;1216168;-71
2022/05/06 20:30:02;;;;;;;25.47;11.43;;;;;;;14.75;67.85;101421.30;4829854;56;1143000;-72
2022/05/06 20:35:09;;;;;;;24.73;11.80;;;;;;;14.65;68.26;101417.21;5134892;57;1143376;-74
2022/05/06 20:40:17;;;;;;;41.37;23.27;;;;;;;14.74;69.28;101414.28;4879990;56;1143386;-69
2022/05/06 20:45:24;;;;;;;30.90;17.43;;;;;;;14.79;69.19;101412.10;4951377;56;1140975;-71
2022/05/06 20:50:29;;;;;;;39.73;21.93;;;;;;;14.84;69.67;101416.55;5101485;56;1141074;-73
2022/05/06 20:55:35;;;;;;;59.07;33.87;;;;;;;14.83;69.61;101416.19;5113469;57;1141206;-73
2022/05/06 21:00:41;;;;;;;46.07;27.00;;;;;;;14.81;69.52;101415.48;5093728;57;1141023;-70
2022/05/06 21:05:47;;;;;;;43.90;24.73;;;;;;;14.82;69.56;101423.81;5094576;57;1141052;-70
2022/05/06 21:16:16;;;;;;;41.83;23.37;;;;;;;14.71;69.08;101430.50;5079258;57;1141075;-76
2022/05/06 21:21:22;;;;;;;35.07;17.57;;;;;;;14.63;69.24;101431.13;5102454;57;1141208;-74
2022/05/06 21:26:28;;;;;;;38.30;16.63;;;;;;;14.62;69.83;101436.09;5103990;57;1141095;-76
2022/05/06 21:31:34;;;;;;;23.97;13.63;;;;;;;14.60;69.83;101439.84;5090450;57;1141119;-76
2022/05/06 21:36:40;;;;;;;27.63;15.97;;;;;;;14.53;69.84;101437.29;5103850;57;1141151;-76
2022/05/06 21:41:45;;;;;;;28.70;16.90;;;;;;;14.42;69.78;101435.00;5093250;57;1141147;-75
2022/05/06 21:46:51;;;;;;;28.63;18.37;;;;;;;14.27;69.80;101436.66;5068045;58;1141121;-78
2022/05/06 21:51:57;;;;;;;23.37;12.33;;;;;;;14.19;70.05;101443.08;5068105;57;1141343;-75
2022/05/06 21:57:03;;;;;;;22.33;13.37;;;;;;;14.05;70.02;101440.98;5067889;58;1141230;-78
2022/05/06 22:02:09;;;;;;;25.50;14.87;;;;;;;13.92;70.06;101441.57;5092998;57;1139052;-77
2022/05/06 22:07:17;;;;;;;24.37;11.73;;;;;;;13.87;70.16;101441.09;5151717;57;1138981;-73
2022/05/06 22:12:22;;;;;;;17.00;10.80;;;;;;;13.87;70.57;101433.59;5097138;57;1143271;-77
2022/05/06 22:17:28;;;;;;;23.47;13.50;;;;;;;13.82;70.78;101431.77;5165085;57;1143115;-77
2022/05/06 22:22:34;;;;;;;52.78;28.77;;;;;;;13.68;70.80;101428.83;5165021;57;1143078;-76
2022/05/06 22:27:39;;;;;;;21.60;11.73;;;;;;;13.58;71.04;101435.34;5191643;56;1143115;-76
2022/05/06 22:38:09;;;;;;;22.10;10.82;;;;;;;13.36;71.04;101441.89;5189108;56;1143156;-76
2022/05/06 22:48:41;;;;;;;13.13;8.05;;;;;;;13.21;71.73;101427.09;5251946;56;1141069;-75
2022/05/06 22:53:46;;;;;;;17.57;11.43;;;;;;;13.18;71.83;101425.98;5239327;56;1141039;-73
2022/05/06 22:58:52;;;;;;;18.87;12.83;;;;;;;13.11;71.78;101430.88;5238481;56;1143407;-79
2022/05/06 23:03:59;;;;;;;17.37;11.10;;;;;;;13.11;71.98;101418.08;5242674;56;1142554;-77
2022/05/06 23:09:05;;;;;;;14.93;10.40;;;;;;;13.07;72.04;101416.60;5209463;56;1143156;-78
2022/05/06 23:14:13;;;;;;;15.47;10.07;;;;;;;13.02;71.93;101417.78;5180255;56;1143082;-75
2022/05/06 23:19:18;;;;;;;18.03;12.33;;;;;;;12.90;71.99;101404.09;5131316;57;1143174;-77
2022/05/06 23:24:24;;;;;;;15.10;11.07;;;;;;;12.82;72.02;101404.29;5150540;56;1143151;-74
2022/05/06 23:29:30;;;;;;;15.57;11.43;;;;;;;12.71;72.14;101400.22;5191521;56;1143260;-78
2022/05/06 23:34:36;;;;;;;13.10;9.70;;;;;;;12.64;72.32;101405.14;5176537;56;1143158;-75
2022/05/06 23:39:41;;;;;;;18.37;9.17;;;;;;;12.55;72.08;101405.78;5155720;56;1141210;-72
2022/05/06 23:44:47;;;;;;;18.07;8.73;;;;;;;12.50;72.17;101407.94;5217022;56;1141088;-74
2022/05/06 23:49:54;;;;;;;14.80;8.57;;;;;;;12.47;72.50;101398.86;5216860;56;1141312;-73
2022/05/06 23:55:00;;;;;;;18.07;10.90;;;;;;;12.46;72.66;101398.49;5216981;56;1141093;-75
